Time;durP1;ratioP1;P1;durP2;ratioP2;P2;SDS_P1;SDS_P2;PMS_P1;PMS_P2;Temp;Humidity;BMP_temperature;BMP_pressure;BME280_temperature;BME280_humidity;BME280_pressure;Samples;Min_cycle;Max_cycle;Signal;HPM_P1;HPM_P2
2023/08/12 00:00:50;;;;;;;0.10;0.10;;;20.20;99.90;;;;;;5007229;28;20653;-83
2023/08/12 00:03:16;;;;;;;0.10;0.10;;;20.20;99.90;;;;;;5006939;28;20229;-84
2023/08/12 00:05:42;;;;;;;0.10;0.10;;;20.20;99.90;;;;;;5006592;28;20211;-83
2023/08/12 00:08:08;;;;;;;0.10;0.10;;;20.20;99.90;;;;;;5007183;28;20206;-82
2023/08/12 00:10:34;;;;;;;0.10;0.10;;;20.20;99.90;;;;;;5006845;28;20186;-84
2023/08/12 00:12:59;;;;;;;0.10;0.10;;;20.10;99.90;;;;;;5008086;28;20179;-83
2023/08/12 00:15:25;;;;;;;0.10;0.10;;;20.20;99.90;;;;;;5006428;28;20198;-83
2023/08/12 00:17:50;;;;;;;0.10;0.10;;;20.30;99.90;;;;;;5006128;28;20700;-83
2023/08/12 00:20:16;;;;;;;0.10;0.10;;;20.40;99.90;;;;;;5005922;28;20191;-83
2023/08/12 00:22:42;;;;;;;0.10;0.10;;;20.60;99.90;;;;;;5005992;28;20191;-83
2023/08/12 00:25:08;;;;;;;0.10;0.10;;;20.80;99.90;;;;;;5006271;28;20209;-83
2023/08/12 00:27:34;;;;;;;0.10;0.10;;;20.90;99.90;;;;;;5022743;28;20322;-84
2023/08/12 00:29:59;;;;;;;0.10;0.10;;;20.90;99.90;;;;;;5006831;28;20179;-83
2023/08/12 00:32:25;;;;;;;0.10;0.10;;;20.70;99.90;;;;;;5021360;28;20237;-82
2023/08/12 00:34:50;;;;;;;0.10;0.10;;;20.60;99.90;;;;;;5005887;28;20183;-83
2023/08/12 00:37:16;;;;;;;0.10;0.10;;;20.50;99.90;;;;;;5005293;28;20302;-82
2023/08/12 00:39:41;;;;;;;0.10;0.10;;;20.50;99.90;;;;;;5005764;28;20236;-83
2023/08/12 00:42:07;;;;;;;0.10;0.10;;;20.50;99.90;;;;;;5006895;28;20191;-83
2023/08/12 00:44:32;;;;;;;0.10;0.10;;;20.60;99.90;;;;;;5006977;28;20661;-84
2023/08/12 00:46:58;;;;;;;0.10;0.10;;;20.80;99.90;;;;;;5005722;28;20203;-83
2023/08/12 00:49:25;;;;;;;0.10;0.10;;;21.00;99.90;;;;;;5005821;28;20190;-82
2023/08/12 00:51:52;;;;;;;0.10;0.10;;;21.10;99.90;;;;;;5005448;28;20191;-83
2023/08/12 00:54:20;;;;;;;0.10;0.10;;;21.30;99.90;;;;;;5007022;28;20198;-83
2023/08/12 00:56:48;;;;;;;0.10;0.10;;;21.40;99.90;;;;;;5006531;28;20187;-82
2023/08/12 00:59:14;;;;;;;0.10;0.10;;;21.50;99.90;;;;;;5005811;28;20187;-84
2023/08/12 01:01:41;;;;;;;0.10;0.10;;;21.50;99.90;;;;;;5005333;28;20191;-84
2023/08/12 01:04:07;;;;;;;0.10;0.10;;;21.50;99.90;;;;;;5006949;28;20674;-83
2023/08/12 01:06:33;;;;;;;0.10;0.10;;;21.50;99.90;;;;;;5006203;28;20183;-83
2023/08/12 01:08:59;;;;;;;0.10;0.10;;;21.70;99.90;;;;;;5005171;28;20649;-83
2023/08/12 01:11:29;;;;;;;0.10;0.10;;;21.70;99.90;;;;;;5004806;28;20603;-83
2023/08/12 01:13:55;;;;;;;0.10;0.10;;;21.80;99.90;;;;;;5006620;28;20187;-84
2023/08/12 01:16:22;;;;;;;0.10;0.10;;;21.90;99.90;;;;;;5004482;28;20187;-83
2023/08/12 01:18:50;;;;;;;0.10;0.10;;;21.80;99.90;;;;;;5006894;28;20210;-84
2023/08/12 01:21:17;;;;;;;0.10;0.10;;;21.80;99.90;;;;;;5005620;28;20237;-83
2023/08/12 01:23:44;;;;;;;0.10;0.10;;;21.80;99.90;;;;;;5021419;28;20238;-83
2023/08/12 01:26:09;;;;;;;0.10;0.10;;;21.90;99.90;;;;;;5021197;28;20554;-83
2023/08/12 01:28:35;;;;;;;0.10;0.10;;;21.80;99.90;;;;;;5021975;28;20207;-83
2023/08/12 01:31:10;;;;;;;0.10;0.10;;;21.80;99.90;;;;;;5005881;28;20194;-84
2023/08/12 01:33:56;;;;;;;0.10;0.10;;;21.90;99.90;;;;;;5021367;28;20186;-83
2023/08/12 01:36:24;;;;;;;0.10;0.10;;;21.90;99.90;;;;;;5004438;28;20194;-83
2023/08/12 01:38:51;;;;;;;0.10;0.10;;;21.90;99.90;;;;;;5021732;28;20199;-83
2023/08/12 01:41:19;;;;;;;0.10;0.10;;;21.90;99.90;;;;;;5020425;28;20179;-83
2023/08/12 01:43:45;;;;;;;0.10;0.10;;;21.90;99.90;;;;;;5004656;28;20664;-83
2023/08/12 01:46:10;;;;;;;0.10;0.10;;;21.90;99.90;;;;;;5006411;28;20183;-83
2023/08/12 01:48:36;;;;;;;0.10;0.10;;;21.90;99.90;;;;;;5005447;28;20586;-83
2023/08/12 01:51:02;;;;;;;0.10;0.10;;;21.90;99.90;;;;;;5019526;28;20195;-83
2023/08/12 01:53:28;;;;;;;0.10;0.10;;;21.90;99.90;;;;;;5006075;28;20186;-83
2023/08/12 01:55:54;;;;;;;0.10;0.10;;;21.90;99.90;;;;;;5004519;28;20198;-84
2023/08/12 01:58:19;;;;;;;0.10;0.10;;;21.80;99.90;;;;;;5005003;28;20203;-82
2023/08/12 02:00:45;;;;;;;0.10;0.10;;;21.70;99.90;;;;;;5020293;28;20206;-83
2023/08/12 02:03:10;;;;;;;0.10;0.10;;;21.70;99.90;;;;;;5005505;28;20262;-84
2023/08/12 02:05:39;;;;;;;0.10;0.10;;;21.60;99.90;;;;;;5005326;28;20436;-82
2023/08/12 02:08:05;;;;;;;0.10;0.10;;;21.50;99.90;;;;;;5006235;28;20211;-82
2023/08/12 02:10:30;;;;;;;0.10;0.10;;;21.50;99.90;;;;;;5004988;28;20190;-82
2023/08/12 02:12:56;;;;;;;0.10;0.10;;;21.40;99.90;;;;;;5006384;28;20421;-82
2023/08/12 02:15:21;;;;;;;0.10;0.10;;;21.30;99.90;;;;;;5005269;28;20191;-82
2023/08/12 02:17:47;;;;;;;0.10;0.10;;;21.20;99.90;;;;;;5005213;28;20219;-82
2023/08/12 02:20:12;;;;;;;0.10;0.10;;;21.20;99.90;;;;;;5004460;28;20203;-82
2023/08/12 02:22:38;;;;;;;0.10;0.10;;;21.10;99.90;;;;;;5005047;28;20183;-82
2023/08/12 02:25:04;;;;;;;0.10;0.10;;;21.10;99.90;;;;;;5005465;28;20215;-82
2023/08/12 02:27:29;;;;;;;0.10;0.10;;;21.00;99.90;;;;;;5006218;28;20214;-82
2023/08/12 02:29:55;;;;;;;0.10;0.10;;;21.00;99.90;;;;;;5003659;28;20644;-82
2023/08/12 02:32:20;;;;;;;0.10;0.10;;;21.00;99.90;;;;;;5003932;28;20215;-82
2023/08/12 02:34:46;;;;;;;0.10;0.10;;;21.00;99.90;;;;;;5005697;28;20304;-82
2023/08/12 02:37:12;;;;;;;0.10;0.10;;;21.00;99.90;;;;;;5004417;28;20202;-82
2023/08/12 02:39:38;;;;;;;0.10;0.10;;;21.00;99.90;;;;;;5003922;28;20183;-82
2023/08/12 02:42:04;;;;;;;0.10;0.10;;;20.90;99.90;;;;;;5004409;28;20563;-82
2023/08/12 02:44:29;;;;;;;0.10;0.10;;;20.90;99.90;;;;;;5004560;28;20268;-81
2023/08/12 02:46:55;;;;;;;0.10;0.10;;;20.80;99.90;;;;;;5002714;28;20226;-83
2023/08/12 02:49:20;;;;;;;0.10;0.10;;;20.60;99.90;;;;;;5016840;28;20191;-83
2023/08/12 02:51:46;;;;;;;0.10;0.10;;;20.50;99.90;;;;;;5003078;28;20194;-83
2023/08/12 02:54:11;;;;;;;0.10;0.10;;;20.30;99.90;;;;;;5005262;28;20198;-81
2023/08/12 02:56:37;;;;;;;0.10;0.10;;;20.20;99.90;;;;;;5004225;28;20220;-82
2023/08/12 02:59:03;;;;;;;0.10;0.10;;;20.30;99.90;;;;;;5005302;28;20277;-83
2023/08/12 03:01:28;;;;;;;0.10;0.10;;;20.50;99.90;;;;;;5018751;28;20191;-82
2023/08/12 03:03:54;;;;;;;0.10;0.10;;;20.50;99.90;;;;;;5002613;28;20210;-82
2023/08/12 03:06:20;;;;;;;0.10;0.10;;;20.40;99.90;;;;;;5003960;28;20664;-82
2023/08/12 03:08:45;;;;;;;0.10;0.10;;;20.50;99.90;;;;;;5003308;28;20236;-82
2023/08/12 03:11:11;;;;;;;0.10;0.10;;;20.70;99.90;;;;;;5002479;28;20214;-82
2023/08/12 03:13:36;;;;;;;0.10;0.10;;;20.80;99.90;;;;;;5004660;28;20662;-82
2023/08/12 03:16:02;;;;;;;0.10;0.10;;;20.80;99.90;;;;;;5002348;28;20186;-82
2023/08/12 03:18:27;;;;;;;0.10;0.10;;;20.70;99.90;;;;;;5002762;28;20207;-82
2023/08/12 03:20:53;;;;;;;0.10;0.10;;;20.70;99.90;;;;;;5002539;28;20254;-82
2023/08/12 03:23:18;;;;;;;0.10;0.10;;;20.70;99.90;;;;;;5002506;28;20620;-82
2023/08/12 03:25:47;;;;;;;0.10;0.10;;;20.70;99.90;;;;;;5002806;28;20206;-82
2023/08/12 03:28:12;;;;;;;0.10;0.10;;;20.80;99.90;;;;;;5019558;28;20203;-82
2023/08/12 03:30:38;;;;;;;0.10;0.10;;;20.80;99.90;;;;;;5003481;28;20179;-82
2023/08/12 03:33:03;;;;;;;0.10;0.10;;;20.70;99.90;;;;;;5002648;28;20187;-83
2023/08/12 03:35:29;;;;;;;0.10;0.10;;;20.50;99.90;;;;;;5019121;28;20253;-83
2023/08/12 03:37:55;;;;;;;0.10;0.10;;;20.20;99.90;;;;;;5003259;28;20218;-83
2023/08/12 03:40:20;;;;;;;0.10;0.10;;;20.00;99.90;;;;;;5001690;28;20272;-82
2023/08/12 03:42:46;;;;;;;0.20;0.20;;;19.80;99.90;;;;;;5002134;28;20185;-83
2023/08/12 03:45:11;;;;;;;0.10;0.10;;;19.70;99.90;;;;;;5002775;28;20293;-83
2023/08/12 03:47:37;;;;;;;0.10;0.10;;;19.80;99.90;;;;;;5019811;28;20202;-83
2023/08/12 03:50:02;;;;;;;0.10;0.10;;;19.80;99.90;;;;;;5021761;28;20199;-83
2023/08/12 03:52:28;;;;;;;0.10;0.10;;;19.80;99.90;;;;;;5011416;28;20183;-83
2023/08/12 03:54:53;;;;;;;0.10;0.10;;;19.90;99.90;;;;;;5011018;28;20206;-83
2023/08/12 03:57:19;;;;;;;0.10;0.10;;;20.10;99.90;;;;;;5010994;28;20293;-83
2023/08/12 03:59:45;;;;;;;0.10;0.10;;;20.20;99.90;;;;;;5011381;28;20266;-83
2023/08/12 04:02:10;;;;;;;0.10;0.10;;;20.30;99.90;;;;;;5011299;28;20242;-83
2023/08/12 04:04:36;;;;;;;0.10;0.10;;;20.30;99.90;;;;;;5029755;28;20195;-83
2023/08/12 04:07:01;;;;;;;0.10;0.10;;;20.40;99.90;;;;;;5010978;28;20203;-83
2023/08/12 04:09:27;;;;;;;0.10;0.10;;;20.30;99.90;;;;;;5002192;28;20274;-83
2023/08/12 04:11:53;;;;;;;0.10;0.10;;;20.30;99.90;;;;;;4999634;28;20191;-82
2023/08/12 04:14:18;;;;;;;0.10;0.10;;;20.20;99.90;;;;;;5019166;28;20195;-82
2023/08/12 04:16:44;;;;;;;0.10;0.10;;;20.20;99.90;;;;;;5018731;28;20215;-82
2023/08/12 04:19:09;;;;;;;0.10;0.10;;;20.20;99.90;;;;;;5002487;28;20570;-82
2023/08/12 04:21:35;;;;;;;0.10;0.10;;;20.20;99.90;;;;;;5002199;28;20194;-83
2023/08/12 04:24:00;;;;;;;0.10;0.10;;;20.10;99.90;;;;;;5003373;28;20302;-83
2023/08/12 04:26:26;;;;;;;0.10;0.10;;;20.10;99.90;;;;;;5000992;28;20183;-84
2023/08/12 04:28:51;;;;;;;0.10;0.10;;;20.20;99.90;;;;;;5001023;28;20206;-84
2023/08/12 04:31:17;;;;;;;0.10;0.10;;;20.20;99.90;;;;;;5000911;28;20195;-84
2023/08/12 04:33:42;;;;;;;0.10;0.10;;;20.30;99.90;;;;;;5000799;28;21146;-83
2023/08/12 04:36:08;;;;;;;0.10;0.10;;;20.50;99.90;;;;;;5018295;28;20179;-84
2023/08/12 04:38:33;;;;;;;0.10;0.10;;;20.50;99.90;;;;;;5007208;28;20207;-83
2023/08/12 04:40:59;;;;;;;0.10;0.10;;;20.60;99.90;;;;;;5013709;28;20182;-83
2023/08/12 04:43:25;;;;;;;0.10;0.10;;;20.60;99.90;;;;;;5015961;28;20191;-83
2023/08/12 04:45:52;;;;;;;0.10;0.10;;;20.60;99.90;;;;;;5006558;28;20211;-83
2023/08/12 04:48:17;;;;;;;0.10;0.10;;;20.60;99.90;;;;;;5021329;28;20330;-84
2023/08/12 04:50:43;;;;;;;0.10;0.10;;;20.60;99.90;;;;;;5005565;28;20565;-86
2023/08/12 04:53:08;;;;;;;0.10;0.10;;;20.70;99.90;;;;;;5005555;28;20229;-85
2023/08/12 04:55:38;;;;;;;0.10;0.10;;;20.90;99.90;;;;;;5005973;28;20210;-82
2023/08/12 04:58:04;;;;;;;0.10;0.10;;;21.00;99.90;;;;;;5005291;28;20215;-82
2023/08/12 05:00:30;;;;;;;0.10;0.10;;;21.20;99.90;;;;;;5007950;28;20192;-82
2023/08/12 05:02:55;;;;;;;0.10;0.10;;;21.40;99.90;;;;;;5007563;28;20563;-83
2023/08/12 05:05:21;;;;;;;0.10;0.10;;;21.50;99.90;;;;;;5007894;28;20207;-83
2023/08/12 05:07:49;;;;;;;0.10;0.10;;;21.60;99.90;;;;;;5006688;28;20218;-84
2023/08/12 05:10:16;;;;;;;0.10;0.10;;;21.70;99.90;;;;;;5021482;28;20649;-84
2023/08/12 05:12:43;;;;;;;0.10;0.10;;;21.80;99.90;;;;;;5006268;28;20237;-84
2023/08/12 05:15:10;;;;;;;0.10;0.10;;;21.80;99.90;;;;;;5011792;28;20215;-84
2023/08/12 05:17:35;;;;;;;0.10;0.10;;;21.90;99.90;;;;;;5012165;28;20203;-84
2023/08/12 05:20:01;;;;;;;0.10;0.10;;;22.00;99.90;;;;;;5010957;28;20198;-84
2023/08/12 05:22:26;;;;;;;0.10;0.10;;;22.00;99.90;;;;;;5013721;28;20199;-86
2023/08/12 05:24:52;;;;;;;0.10;0.10;;;22.10;99.90;;;;;;5008429;28;20195;-87
2023/08/12 05:27:17;;;;;;;0.10;0.10;;;22.10;99.90;;;;;;5009239;28;20957;-85
2023/08/12 05:29:43;;;;;;;0.10;0.10;;;22.10;99.90;;;;;;5009878;28;20656;-82
2023/08/12 05:32:08;;;;;;;0.10;0.10;;;21.90;99.90;;;;;;5011432;28;20244;-83
2023/08/12 05:34:34;;;;;;;0.10;0.10;;;22.10;99.90;;;;;;5004917;28;20249;-82
2023/08/12 05:36:59;;;;;;;0.10;0.10;;;22.50;99.90;;;;;;5009374;28;20236;-82
2023/08/12 05:39:25;;;;;;;0.10;0.10;;;22.70;99.90;;;;;;5005314;28;20687;-82
2023/08/12 05:41:52;;;;;;;0.10;0.10;;;23.00;99.90;;;;;;5006447;28;20187;-83
2023/08/12 05:44:17;;;;;;;0.10;0.10;;;23.10;99.90;;;;;;5006832;28;20207;-82
2023/08/12 05:46:43;;;;;;;0.10;0.10;;;23.00;99.90;;;;;;5006985;28;20183;-83
2023/08/12 05:49:08;;;;;;;0.10;0.10;;;23.10;99.90;;;;;;5021375;28;20182;-82
2023/08/12 05:51:34;;;;;;;0.10;0.10;;;23.30;99.90;;;;;;5006651;28;20201;-82
2023/08/12 05:53:59;;;;;;;0.10;0.10;;;23.40;99.90;;;;;;5005788;28;20197;-82
2023/08/12 05:56:25;;;;;;;0.10;0.10;;;23.30;99.90;;;;;;5005419;28;20215;-82
2023/08/12 05:58:50;;;;;;;0.10;0.10;;;23.20;99.90;;;;;;5005462;28;20206;-82
2023/08/12 06:01:17;;;;;;;0.10;0.10;;;23.10;99.90;;;;;;5004061;28;20201;-83
2023/08/12 06:03:43;;;;;;;0.10;0.10;;;23.10;99.90;;;;;;5021524;28;20175;-82
2023/08/12 06:06:09;;;;;;;0.10;0.10;;;23.10;99.90;;;;;;5004944;28;20189;-82
2023/08/12 06:08:34;;;;;;;0.10;0.10;;;23.00;99.90;;;;;;5006423;28;20199;-82
2023/08/12 06:11:00;;;;;;;0.10;0.10;;;23.00;99.90;;;;;;5004650;28;20179;-82
2023/08/12 06:13:25;;;;;;;0.10;0.10;;;23.40;99.90;;;;;;5004553;28;20270;-82
2023/08/12 06:15:51;;;;;;;0.10;0.10;;;23.80;99.90;;;;;;5005046;28;20191;-82
2023/08/12 06:18:16;;;;;;;0.10;0.10;;;24.10;99.90;;;;;;5018834;28;20210;-82
2023/08/12 06:20:42;;;;;;;0.10;0.10;;;24.30;99.90;;;;;;5005751;28;20194;-82
2023/08/12 06:23:07;;;;;;;0.10;0.10;;;24.00;99.90;;;;;;5005283;28;20179;-82
2023/08/12 06:25:33;;;;;;;0.10;0.10;;;24.00;99.90;;;;;;5004847;28;20207;-82
2023/08/12 06:27:58;;;;;;;0.10;0.10;;;23.70;99.90;;;;;;5005004;28;20206;-82
2023/08/12 06:30:24;;;;;;;0.10;0.10;;;23.70;99.90;;;;;;5005611;28;20193;-82
2023/08/12 06:32:49;;;;;;;0.10;0.10;;;23.50;99.90;;;;;;5004626;28;20179;-82
2023/08/12 06:35:15;;;;;;;0.10;0.10;;;23.40;99.90;;;;;;5005807;28;20191;-83
2023/08/12 06:37:41;;;;;;;0.10;0.10;;;23.40;99.90;;;;;;5005185;28;20234;-82
2023/08/12 06:40:07;;;;;;;0.10;0.10;;;23.60;99.90;;;;;;5021328;28;20237;-82
2023/08/12 06:42:33;;;;;;;0.10;0.10;;;23.60;99.90;;;;;;5020824;28;20190;-82
2023/08/12 06:44:59;;;;;;;0.10;0.10;;;23.60;99.90;;;;;;5006081;28;20224;-83
2023/08/12 06:47:27;;;;;;;0.10;0.10;;;23.00;99.90;;;;;;5005949;28;20260;-82
2023/08/12 06:49:53;;;;;;;0.10;0.10;;;23.10;99.90;;;;;;5020158;28;20199;-82
2023/08/12 06:52:18;;;;;;;0.10;0.10;;;23.30;99.90;;;;;;5020854;28;20630;-82
2023/08/12 06:54:44;;;;;;;0.10;0.10;;;23.10;99.90;;;;;;5004345;28;20218;-82
2023/08/12 06:57:11;;;;;;;0.10;0.10;;;23.00;99.90;;;;;;5004494;28;20269;-82
2023/08/12 06:59:37;;;;;;;0.10;0.10;;;23.20;99.90;;;;;;5019619;28;20189;-82
2023/08/12 07:02:03;;;;;;;0.10;0.10;;;23.20;99.90;;;;;;5004252;28;20175;-82
2023/08/12 07:04:28;;;;;;;0.10;0.10;;;23.20;99.90;;;;;;5006158;28;20207;-82
2023/08/12 07:06:54;;;;;;;0.10;0.10;;;22.90;99.90;;;;;;5004181;28;20293;-83
2023/08/12 07:09:19;;;;;;;0.10;0.10;;;23.00;99.90;;;;;;5004979;28;20191;-82
2023/08/12 07:11:45;;;;;;;0.10;0.10;;;23.10;99.90;;;;;;5003159;28;20692;-82
2023/08/12 07:14:10;;;;;;;0.10;0.10;;;23.30;99.90;;;;;;5004405;28;20182;-82
2023/08/12 07:16:36;;;;;;;0.10;0.10;;;23.40;99.90;;;;;;5003684;28;20261;-82
2023/08/12 07:19:01;;;;;;;0.10;0.10;;;23.40;99.90;;;;;;5003675;28;20178;-83
2023/08/12 07:21:27;;;;;;;0.10;0.10;;;23.30;99.90;;;;;;5004698;28;20226;-82
2023/08/12 07:23:52;;;;;;;0.10;0.10;;;23.20;99.90;;;;;;5003642;28;20179;-82
2023/08/12 07:26:18;;;;;;;0.10;0.10;;;23.10;99.90;;;;;;5005471;28;20187;-83
2023/08/12 07:28:43;;;;;;;0.10;0.10;;;22.90;99.90;;;;;;5019634;28;20207;-82
2023/08/12 07:31:09;;;;;;;0.10;0.10;;;23.10;99.90;;;;;;5003151;28;20283;-82
2023/08/12 07:33:35;;;;;;;0.10;0.10;;;23.50;99.90;;;;;;5005179;28;20254;-82
2023/08/12 07:36:02;;;;;;;0.10;0.10;;;23.20;99.90;;;;;;5003958;28;20652;-82
2023/08/12 07:38:27;;;;;;;0.10;0.10;;;23.20;99.90;;;;;;5005649;28;20317;-82
2023/08/12 07:40:53;;;;;;;0.10;0.10;;;23.20;99.90;;;;;;5002649;28;20645;-82
2023/08/12 07:43:18;;;;;;;0.10;0.10;;;23.40;99.90;;;;;;5019843;28;20256;-82
2023/08/12 07:45:44;;;;;;;0.10;0.10;;;23.00;99.90;;;;;;5004652;28;20209;-83
2023/08/12 07:48:09;;;;;;;0.10;0.10;;;22.70;99.90;;;;;;5019486;28;20241;-82
2023/08/12 07:50:35;;;;;;;0.10;0.10;;;22.60;99.90;;;;;;5002765;28;20209;-82
2023/08/12 07:53:00;;;;;;;0.10;0.10;;;22.80;99.90;;;;;;5003558;28;20885;-82
2023/08/12 07:55:27;;;;;;;0.10;0.10;;;22.90;99.90;;;;;;5004711;28;20195;-82
2023/08/12 07:57:53;;;;;;;0.10;0.10;;;23.10;99.90;;;;;;5020236;28;20267;-82
2023/08/12 08:00:19;;;;;;;0.10;0.10;;;23.20;99.90;;;;;;5003422;28;20191;-82
2023/08/12 08:02:44;;;;;;;0.10;0.10;;;23.10;99.90;;;;;;5003832;28;20188;-82
2023/08/12 08:05:10;;;;;;;0.10;0.10;;;22.90;99.90;;;;;;5003829;28;20206;-82
2023/08/12 08:07:35;;;;;;;0.10;0.10;;;22.90;99.90;;;;;;5005037;28;20214;-82
2023/08/12 08:10:01;;;;;;;0.10;0.10;;;23.20;99.90;;;;;;5004270;28;20183;-82
2023/08/12 08:12:27;;;;;;;0.10;0.10;;;23.90;99.90;;;;;;5006506;28;20217;-82
2023/08/12 08:14:52;;;;;;;0.10;0.10;;;24.20;99.90;;;;;;5008144;28;20183;-82
2023/08/12 08:17:18;;;;;;;0.10;0.10;;;24.70;99.90;;;;;;5007053;28;20289;-82
2023/08/12 08:19:43;;;;;;;0.10;0.10;;;24.70;99.90;;;;;;5008822;28;20186;-82
2023/08/12 08:22:09;;;;;;;0.10;0.10;;;24.80;99.90;;;;;;5006729;28;20209;-82
2023/08/12 08:24:34;;;;;;;0.10;0.10;;;25.00;99.90;;;;;;5007808;28;20578;-82
2023/08/12 08:27:00;;;;;;;0.10;0.10;;;25.60;99.90;;;;;;5007088;28;20202;-82
2023/08/12 08:29:25;;;;;;;0.10;0.10;;;25.70;99.90;;;;;;5007962;28;20242;-82
2023/08/12 08:31:51;;;;;;;0.10;0.10;;;25.50;99.90;;;;;;5006862;28;20183;-83
2023/08/12 08:34:16;;;;;;;0.10;0.10;;;25.50;99.90;;;;;;5006512;28;20648;-82
2023/08/12 08:36:42;;;;;;;0.10;0.10;;;25.90;99.90;;;;;;5007259;28;20577;-82
2023/08/12 08:39:08;;;;;;;0.10;0.10;;;25.50;99.90;;;;;;5006879;28;20821;-82
2023/08/12 08:41:38;;;;;;;0.10;0.10;;;25.20;99.90;;;;;;5006211;28;20187;-82
2023/08/12 08:44:07;;;;;;;0.28;0.28;;;24.50;99.90;;;;;;5007936;28;20211;-83
2023/08/12 08:46:32;;;;;;;0.10;0.10;;;23.80;99.90;;;;;;5006788;28;20194;-82
2023/08/12 08:49:01;;;;;;;0.10;0.10;;;24.30;99.90;;;;;;5008047;28;20211;-82
2023/08/12 08:51:31;;;;;;;0.20;0.20;;;24.30;99.90;;;;;;5022416;28;20210;-82
2023/08/12 08:53:58;;;;;;;0.10;0.10;;;24.60;99.90;;;;;;5007758;28;20269;-82
2023/08/12 08:56:23;;;;;;;0.10;0.10;;;24.20;99.90;;;;;;5007880;28;20175;-82
2023/08/12 08:58:49;;;;;;;0.10;0.10;;;24.10;99.90;;;;;;5006415;28;20210;-82
2023/08/12 09:01:19;;;;;;;0.10;0.10;;;24.40;99.90;;;;;;5007172;28;20191;-82
2023/08/12 09:03:46;;;;;;;0.10;0.10;;;24.70;99.90;;;;;;5007669;28;20641;-83
2023/08/12 09:06:12;;;;;;;0.10;0.10;;;24.90;99.90;;;;;;5022664;28;20218;-82
2023/08/12 09:08:40;;;;;;;0.10;0.10;;;24.60;99.90;;;;;;5006370;28;20684;-82
2023/08/12 09:11:07;;;;;;;0.10;0.10;;;24.60;99.90;;;;;;5006057;28;20179;-82
2023/08/12 09:13:32;;;;;;;0.10;0.10;;;25.00;99.90;;;;;;5005984;28;20191;-82
2023/08/12 09:15:58;;;;;;;0.10;0.10;;;25.00;99.90;;;;;;5006981;28;20562;-82
2023/08/12 09:18:24;;;;;;;0.10;0.10;;;24.80;99.90;;;;;;5005351;28;20265;-84
2023/08/12 09:20:53;;;;;;;0.10;0.10;;;25.00;99.90;;;;;;5006095;28;20583;-84
2023/08/12 09:23:19;;;;;;;0.10;0.10;;;24.40;99.90;;;;;;5004304;28;20183;-83
2023/08/12 09:25:44;;;;;;;0.10;0.10;;;24.30;99.90;;;;;;5004942;28;20265;-83
2023/08/12 09:28:11;;;;;;;0.10;0.10;;;24.50;99.90;;;;;;5005622;28;20207;-83
2023/08/12 09:30:38;;;;;;;0.10;0.10;;;25.30;99.90;;;;;;5006616;28;20355;-83
2023/08/12 09:33:06;;;;;;;0.10;0.10;;;25.90;99.90;;;;;;5007170;28;20779;-83
2023/08/12 09:35:36;;;;;;;0.10;0.10;;;26.20;99.90;;;;;;5007233;28;20266;-83
2023/08/12 09:38:06;;;;;;;0.10;0.10;;;26.30;99.90;;;;;;5006771;28;20262;-84
2023/08/12 09:40:34;;;;;;;0.10;0.10;;;26.40;99.90;;;;;;5021425;28;20187;-81
2023/08/12 09:43:01;;;;;;;0.10;0.10;;;26.50;99.90;;;;;;5006555;28;20551;-82
2023/08/12 09:45:26;;;;;;;0.10;0.10;;;26.30;99.90;;;;;;5006354;28;20203;-82
2023/08/12 09:47:54;;;;;;;0.10;0.10;;;26.10;99.90;;;;;;5004437;28;21103;-82
2023/08/12 09:50:22;;;;;;;0.10;0.10;;;25.90;99.90;;;;;;5004686;28;20282;-82
2023/08/12 09:52:48;;;;;;;0.10;0.10;;;25.90;99.90;;;;;;5006576;28;20179;-82
2023/08/12 09:55:16;;;;;;;0.10;0.10;;;26.00;99.90;;;;;;5006558;28;20194;-82
2023/08/12 09:57:46;;;;;;;0.10;0.10;;;26.00;99.90;;;;;;5022208;28;20199;-83
2023/08/12 10:00:16;;;;;;;0.10;0.10;;;26.10;99.90;;;;;;5006931;28;20214;-82
2023/08/12 10:02:43;;;;;;;0.10;0.10;;;26.20;99.90;;;;;;5005576;28;20179;-83
2023/08/12 10:05:12;;;;;;;0.10;0.10;;;26.20;99.90;;;;;;5006463;28;20285;-82
2023/08/12 10:07:39;;;;;;;0.10;0.10;;;26.10;99.90;;;;;;5022386;28;20203;-82
2023/08/12 10:10:06;;;;;;;0.10;0.10;;;25.80;99.90;;;;;;5006559;28;20178;-82
2023/08/12 10:12:33;;;;;;;0.10;0.10;;;25.50;99.90;;;;;;5005686;28;20187;-82
2023/08/12 10:15:00;;;;;;;0.10;0.10;;;25.20;99.90;;;;;;5021951;28;20218;-82
2023/08/12 10:17:26;;;;;;;0.10;0.10;;;24.90;99.90;;;;;;5006191;28;20234;-82
2023/08/12 10:19:57;;;;;;;0.10;0.10;;;24.50;99.90;;;;;;5005165;28;21084;-82
2023/08/12 10:22:25;;;;;;;0.10;0.10;;;24.30;99.90;;;;;;5021004;28;21191;-83
2023/08/12 10:24:51;;;;;;;0.10;0.10;;;24.10;99.90;;;;;;5020329;28;20253;-82
2023/08/12 10:27:17;;;;;;;0.10;0.10;;;23.90;99.90;;;;;;5004447;28;20199;-82
2023/08/12 10:29:43;;;;;;;0.10;0.10;;;23.90;99.90;;;;;;5006503;28;20249;-82
2023/08/12 10:32:09;;;;;;;0.10;0.10;;;23.70;99.90;;;;;;5005189;28;21135;-82
2023/08/12 10:34:35;;;;;;;0.10;0.10;;;23.60;99.90;;;;;;5004579;28;20182;-82
2023/08/12 10:37:04;;;;;;;0.10;0.10;;;23.50;99.90;;;;;;5004689;28;20234;-82
2023/08/12 10:39:32;;;;;;;0.10;0.10;;;23.40;99.90;;;;;;5004940;28;20229;-82
2023/08/12 10:41:58;;;;;;;0.10;0.10;;;23.50;99.90;;;;;;5020171;28;20179;-82
2023/08/12 10:44:40;;;;;;;0.10;0.10;;;23.40;99.90;;;;;;5003597;28;20633;-83
2023/08/12 10:47:10;;;;;;;0.10;0.10;;;23.40;99.90;;;;;;5006301;28;20199;-82
2023/08/12 10:49:44;;;;;;;0.10;0.10;;;23.40;99.90;;;;;;5004897;28;20592;-83
2023/08/12 10:52:31;;;;;;;0.10;0.10;;;23.40;99.90;;;;;;5003859;28;20194;-82
2023/08/12 10:55:25;;;;;;;0.10;0.10;;;23.40;99.90;;;;;;5020169;28;20553;-82
2023/08/12 10:57:53;;;;;;;0.10;0.10;;;23.40;99.90;;;;;;5004281;28;20199;-82
2023/08/12 11:00:22;;;;;;;0.10;0.10;;;23.50;99.90;;;;;;5002957;28;20187;-82
2023/08/12 11:02:56;;;;;;;0.10;0.10;;;23.60;99.90;;;;;;5020461;28;20720;-82
2023/08/12 11:05:23;;;;;;;0.10;0.10;;;23.90;99.90;;;;;;5003968;28;20249;-82
2023/08/12 11:07:55;;;;;;;0.10;0.10;;;24.50;99.90;;;;;;5023615;28;20209;-82
2023/08/12 11:10:25;;;;;;;0.10;0.10;;;25.20;99.90;;;;;;5009456;28;20187;-82
2023/08/12 11:12:51;;;;;;;0.10;0.10;;;25.40;99.90;;;;;;5009628;28;20183;-82
2023/08/12 11:15:17;;;;;;;0.10;0.10;;;25.90;99.90;;;;;;5007209;28;20185;-81
2023/08/12 11:17:45;;;;;;;0.10;0.10;;;26.40;99.90;;;;;;5006129;28;20676;-82
2023/08/12 11:20:11;;;;;;;0.10;0.10;;;26.60;99.90;;;;;;5005347;28;20569;-82
2023/08/12 11:22:39;;;;;;;0.10;0.10;;;26.90;99.90;;;;;;5006812;28;20191;-82
2023/08/12 11:25:08;;;;;;;0.10;0.10;;;27.40;99.90;;;;;;5021791;28;20297;-82
2023/08/12 11:27:45;;;;;;;0.10;0.10;;;27.30;99.90;;;;;;5006166;28;20214;-81
2023/08/12 11:30:14;;;;;;;0.10;0.10;;;27.40;99.90;;;;;;5022033;28;20317;-82
2023/08/12 11:32:41;;;;;;;0.10;0.10;;;27.20;99.90;;;;;;5004145;28;20264;-82
2023/08/12 11:35:08;;;;;;;0.10;0.10;;;27.10;99.90;;;;;;5004481;28;21243;-82
2023/08/12 11:37:35;;;;;;;0.10;0.10;;;26.80;99.90;;;;;;5005770;28;20203;-83
2023/08/12 11:40:03;;;;;;;0.10;0.10;;;26.60;99.90;;;;;;5004801;28;20199;-82
2023/08/12 11:42:28;;;;;;;0.10;0.10;;;26.60;99.90;;;;;;5003588;28;20241;-82
2023/08/12 11:44:54;;;;;;;0.10;0.10;;;26.80;99.90;;;;;;5001083;28;20207;-82
2023/08/12 11:47:19;;;;;;;0.10;0.10;;;26.60;99.90;;;;;;5008011;28;20218;-83
2023/08/12 11:49:45;;;;;;;0.10;0.10;;;26.50;99.90;;;;;;5007356;28;20183;-82
2023/08/12 11:52:11;;;;;;;0.10;0.10;;;26.30;99.90;;;;;;5032859;28;20195;-82
2023/08/12 11:54:37;;;;;;;0.10;0.10;;;26.20;99.90;;;;;;5014571;28;20205;-82
2023/08/12 11:57:03;;;;;;;0.10;0.10;;;26.30;99.90;;;;;;5007763;28;20208;-81
2023/08/12 11:59:30;;;;;;;0.10;0.10;;;26.50;99.90;;;;;;5006855;28;20691;-82
2023/08/12 12:01:56;;;;;;;0.10;0.10;;;26.80;99.90;;;;;;5008664;28;20683;-82
2023/08/12 12:04:22;;;;;;;0.10;0.10;;;27.00;99.90;;;;;;5008814;28;20215;-82
2023/08/12 12:06:48;;;;;;;0.10;0.10;;;27.00;99.90;;;;;;5023395;28;20187;-82
2023/08/12 12:09:13;;;;;;;0.73;0.73;;;27.00;99.90;;;;;;5007481;28;20248;-82
2023/08/12 12:11:40;;;;;;;0.10;0.10;;;27.20;99.90;;;;;;5008150;28;20990;-83
2023/08/12 12:14:07;;;;;;;0.10;0.10;;;27.30;99.90;;;;;;5008688;28;20222;-82
2023/08/12 12:16:46;;;;;;;0.10;0.10;;;27.50;99.90;;;;;;5008198;28;20185;-83
2023/08/12 12:19:19;;;;;;;0.10;0.10;;;28.00;99.90;;;;;;5008201;28;20648;-82
2023/08/12 12:21:47;;;;;;;0.10;0.10;;;28.10;99.90;;;;;;5022693;28;20655;-83
2023/08/12 12:24:12;;;;;;;0.10;0.10;;;28.00;99.90;;;;;;5006610;28;20572;-82
2023/08/12 12:26:38;;;;;;;0.10;0.10;;;27.80;99.90;;;;;;5008472;28;20183;-82
2023/08/12 12:29:05;;;;;;;0.10;0.10;;;27.40;99.90;;;;;;5007025;28;20248;-82
2023/08/12 12:31:33;;;;;;;0.10;0.10;;;26.80;99.90;;;;;;5007446;28;20210;-82
2023/08/12 12:33:59;;;;;;;0.10;0.10;;;26.10;99.90;;;;;;5008825;28;20262;-81
2023/08/12 12:36:24;;;;;;;0.10;0.10;;;25.60;99.90;;;;;;5009045;28;20267;-82
2023/08/12 12:38:50;;;;;;;0.10;0.10;;;25.90;99.90;;;;;;5007535;28;20201;-82
2023/08/12 12:41:15;;;;;;;0.10;0.10;;;26.30;99.90;;;;;;5022545;28;20266;-82
2023/08/12 12:43:41;;;;;;;0.10;0.10;;;26.60;99.90;;;;;;5008427;28;20190;-82